Latest Weather Observations for Lord Howe Island

IDN60801

Issued at 11:35 pm EST Friday 1 August 2014 (issued every 30 minutes, with the page automatically refreshed every 10 minutes)

About weather observations | Map of weather stations | Latest weather observations for NSW | Other Formats
Station Details ID: 200839 Name: LORD HOWE ISLAND AERO Lat: -31.54 Lon: 159.08 Height: 5.0 m
Data from the previous 72 hours. | See also: Recent months at Lord Howe Island
Date/Time
EST
Temp
°C
App
Temp
°C
Dew
Point
Rel
Hum
%
Delta-T
°C
Wind Press
QNH
hPa
Press
MSL
hPa
Rain
since 9 am
mm
Dir
 
Spd
km/h
Gust
km/h
Spd
kts
Gust
kts
01/11:30pm 19.8 17.9 16.7 82 1.9 N 22 46 12 25 1013.7 1013.7 0.0
01/11:00pm 19.8 17.9 16.8 83 1.8 NNW 22 48 12 26 1014.2 - 0.0
01/10:30pm 19.8 17.8 16.5 81 2.0 NNW 22 52 12 28 1014.5 - 0.0
01/10:06pm 19.8 17.8 16.5 81 2.0 NNW 22 48 12 26 1014.4 - 0.0
01/10:00pm 19.9 17.9 16.4 80 2.1 NNW 22 35 12 19 1014.3 - 0.0
01/09:30pm 19.9 18.1 15.9 78 2.4 NNW 20 52 11 28 1014.4 - 0.0
01/09:00pm 19.9 18.3 16.6 81 2.0 NNW 20 33 11 18 1014.3 - 0.0
01/08:51pm 19.9 18.5 16.6 81 2.0 NNW 19 32 10 17 1014.3 - 0.0
01/08:30pm 19.9 18.3 16.6 81 2.0 NNW 20 41 11 22 1014.3 1014.3 0.0
01/08:00pm 19.9 18.6 16.8 82 1.9 NNW 19 30 10 16 1014.2 - 0.0
01/07:30pm 20.0 19.0 16.7 81 2.0 N 17 37 9 20 1014.0 - 0.0
01/07:00pm 19.8 19.2 16.6 82 1.9 N 15 30 8 16 1014.0 - 0.0
01/06:30pm 19.8 18.5 16.8 83 1.8 N 19 37 10 20 1013.7 - 0.0
01/06:00pm 19.8 18.8 16.5 81 2.0 N 17 37 9 20 1013.4 - 0.0
01/05:30pm 19.9 19.6 16.4 80 2.1 NNW 13 32 7 17 1013.3 1013.3 0.0
01/05:00pm 19.8 18.4 16.5 81 2.0 NNW 19 37 10 20 1013.3 - 0.0
01/04:30pm 19.9 18.4 16.2 79 2.2 NNW 19 35 10 19 1013.2 - 0.0
01/04:00pm 19.9 18.7 16.1 79 2.3 NNW 17 41 9 22 1013.3 - 0.0
01/03:30pm 20.0 18.4 16.0 78 2.4 NNW 19 41 10 22 1013.2 - 0.0
01/03:00pm 20.4 18.7 15.7 74 2.8 N 19 35 10 19 1013.2 - 0.0
01/02:30pm 20.2 18.6 16.0 77 2.5 N 19 26 10 14 1013.3 1013.3 0.0
01/02:00pm 20.1 18.1 15.4 74 2.8 NNW 20 35 11 19 1013.6 - 0.0
01/01:56pm 20.1 18.3 15.4 74 2.8 NW 19 35 10 19 1013.6 - 0.0
01/01:46pm 20.5 19.1 15.6 73 2.9 N 17 37 9 20 1013.5 - 0.0
01/01:30pm 20.5 18.7 15.6 73 2.9 NNW 19 30 10 16 1013.6 - 0.0
01/01:00pm 20.1 18.1 15.5 75 2.7 N 20 39 11 21 1014.0 - 0.0
01/12:35pm 20.1 17.6 15.2 73 2.9 N 22 50 12 27 1014.1 - 0.0
01/12:30pm 20.2 17.7 15.1 72 3.0 N 22 50 12 27 1014.1 - 0.0
01/12:00pm 20.5 19.0 14.3 67 3.6 N 15 22 8 12 1014.4 - 0.0
01/11:30am 21.4 19.1 14.6 65 4.0 NNW 20 35 11 19 1014.8 1014.8 0.0
01/11:00am 21.2 18.1 13.5 61 4.4 NNW 22 39 12 21 1015.4 - 0.0
01/10:30am 20.6 18.0 13.8 65 3.9 N 20 37 11 20 1015.6 - 0.0
01/10:00am 20.7 17.4 14.1 66 3.8 N 24 39 13 21 1016.0 - 0.0
01/09:30am 20.5 18.1 14.3 67 3.6 N 20 44 11 24 1016.2 - 0.0
01/09:00am 20.5 17.2 13.9 66 3.8 N 24 43 13 23 1016.6 - 0.0
01/08:30am 20.5 18.3 14.3 67 3.6 N 19 39 10 21 1016.8 1016.8 0.2
01/08:00am 19.8 17.9 14.1 69 3.3 N 17 28 9 15 1017.0 - 0.2
01/07:30am 19.3 16.8 14.1 72 3.0 N 20 39 11 21 1017.0 - 0.2
01/07:00am 19.3 17.6 14.7 74 2.7 NNW 17 26 9 14 1016.7 - 0.2
01/06:30am 18.6 17.0 13.9 74 2.7 NNW 15 24 8 13 1016.7 - 0.2
01/06:00am 18.6 16.6 13.9 74 2.7 N 17 33 9 18 1016.9 - 0.2
01/05:30am 18.3 17.0 14.7 79 2.1 NNW 15 37 8 20 1016.9 1016.9 0.2
01/05:00am 18.6 16.7 12.9 69 3.2 NNW 15 30 8 16 1016.8 - 0.2
01/04:30am 18.6 16.5 13.7 73 2.8 NNW 17 30 9 16 1016.8 - 0.2
01/04:00am 19.0 16.9 13.7 71 3.0 NNW 17 35 9 19 1017.0 - 0.2
01/03:30am 18.9 17.2 13.6 71 3.0 NNW 15 39 8 21 1016.9 - 0.2
01/03:00am 18.8 16.3 13.5 71 3.0 NNW 19 30 10 16 1017.0 - 0.2
01/02:30am 19.0 16.7 14.1 73 2.8 NW 19 28 10 15 1017.3 1017.3 0.2
01/02:00am 19.5 18.2 14.9 75 2.7 N 15 24 8 13 1017.5 - 0.2
01/01:30am 19.5 18.4 14.3 72 3.0 NNW 13 28 7 15 1017.7 - 0.2
01/01:00am 19.3 18.6 14.3 73 2.9 N 11 20 6 11 1017.9 - 0.2
01/12:30am 19.4 17.0 13.8 70 3.2 N 19 26 10 14 1018.2 - 0.2
01/12:00am 19.4 18.3 14.4 73 2.9 N 13 32 7 17 1018.4 - 0.2
 
Date/Time
EST
Temp
°C
App
Temp
°C
Dew
Point
Rel
Hum
%
Delta-T
°C
Wind Press
QNH
hPa
Press
MSL
hPa
Rain
since 9 am
mm
Dir
 
Spd
km/h
Gust
km/h
Spd
kts
Gust
kts
31/11:30pm 19.3 17.9 14.6 74 2.7 N 15 30 8 16 1018.5 1018.5 0.2
31/11:00pm 18.4 17.9 12.7 69 3.2 NNE 7 15 4 8 1018.6 - 0.2
31/10:30pm 17.8 14.4 12.4 70 3.0 NNW 22 41 12 22 1019.4 - 0.0
31/10:00pm 19.6 18.4 15.0 75 2.7 N 15 24 8 13 1018.8 - 0.0
31/09:30pm 19.6 18.5 14.4 72 3.0 N 13 26 7 14 1018.8 - 0.0
31/09:00pm 19.5 18.9 14.7 74 2.8 N 11 22 6 12 1018.7 - 0.0
31/08:30pm 19.7 18.7 14.5 72 3.0 N 13 22 7 12 1018.7 1018.7 0.0
31/08:00pm 19.5 18.9 14.7 74 2.8 NNW 11 24 6 13 1018.7 - 0.0
31/07:30pm 19.2 18.7 13.8 71 3.1 N 9 17 5 9 1018.7 - 0.0
31/07:00pm 19.2 18.8 14.0 72 3.0 NNE 9 13 5 7 1018.6 - 0.0
31/06:30pm 19.1 18.2 14.8 76 2.5 N 13 22 7 12 1018.5 - 0.0
31/06:00pm 19.5 18.8 14.3 72 3.0 NNW 11 22 6 12 1018.5 - 0.0
31/05:30pm 19.7 18.8 13.6 68 3.5 NNW 11 20 6 11 1018.4 1018.4 0.0
31/05:00pm 19.5 19.6 15.4 77 2.4 N 9 17 5 9 1018.3 - 0.0
31/04:30pm 19.9 19.5 15.1 74 2.8 N 11 22 6 12 1018.2 - 0.0
31/04:00pm 20.3 19.3 14.6 70 3.3 N 13 20 7 11 1018.2 - 0.0
31/03:30pm 20.7 19.7 14.5 67 3.6 N 13 24 7 13 1018.1 - 0.0
31/03:00pm 20.9 20.0 14.9 68 3.5 N 13 24 7 13 1018.1 - 0.0
31/02:30pm 21.4 20.3 14.2 63 4.2 NNW 13 22 7 12 1018.2 1018.2 0.0
31/02:00pm 21.3 20.8 15.0 67 3.7 NW 11 20 6 11 1018.2 - 0.0
31/01:30pm 20.9 19.6 14.9 68 3.5 NNW 15 24 8 13 1018.6 - 0.0
31/01:00pm 21.5 20.4 15.3 68 3.7 N 15 30 8 16 1018.9 - 0.0
31/12:30pm 21.6 19.9 14.8 65 4.0 NNW 17 28 9 15 1019.4 - 0.0
31/12:00pm 22.1 20.5 15.0 64 4.2 N 17 30 9 16 1020.0 - 0.0
31/11:30am 21.6 20.4 15.0 66 3.9 NNW 15 26 8 14 1020.7 1020.7 0.0
31/11:00am 21.8 20.5 14.8 64 4.1 NNW 15 22 8 12 1021.2 - 0.0
31/10:30am 21.3 19.0 14.0 63 4.2 NNW 19 30 10 16 1021.6 - 0.0
31/10:00am 21.6 20.0 13.8 61 4.5 N 15 24 8 13 1021.9 - 0.0
31/09:30am 21.2 20.4 13.9 63 4.2 NNW 11 19 6 10 1022.0 - 0.0
31/09:00am 21.0 19.8 12.9 60 4.6 NNW 11 19 6 10 1022.1 - 0.0
31/08:30am 20.4 19.2 12.8 61 4.3 NW 11 20 6 11 1022.1 1022.1 0.0
31/08:00am 20.1 19.8 13.4 65 3.8 NW 7 17 4 9 1022.1 - 0.0
31/07:30am 19.8 19.1 13.3 66 3.7 NW 9 15 5 8 1021.9 - 0.0
31/07:00am 19.1 18.8 13.3 69 3.3 NNW 7 17 4 9 1021.8 - 0.0
31/06:30am 18.1 17.8 13.3 73 2.7 NW 7 13 4 7 1021.6 - 0.0
31/06:00am 17.8 17.7 13.2 74 2.6 NW 6 9 3 5 1021.5 - 0.0
31/05:30am 17.6 17.2 12.9 74 2.6 WNW 7 13 4 7 1021.2 1021.2 0.0
31/05:00am 18.0 17.5 12.8 71 2.9 WNW 7 11 4 6 1020.9 - 0.0
31/04:30am 18.2 17.5 13.2 72 2.8 W 9 17 5 9 1020.7 - 0.0
31/04:00am 18.3 16.6 12.5 69 3.2 WNW 13 20 7 11 1020.5 - 0.0
31/03:30am 18.6 16.5 12.5 67 3.4 W 15 24 8 13 1020.3 - 0.0
31/03:00am 18.6 16.9 12.5 67 3.4 WNW 13 20 7 11 1020.3 - 0.0
31/02:30am 18.6 16.1 12.3 67 3.5 W 17 28 9 15 1020.3 1020.3 0.0
31/02:00am 18.2 16.1 12.4 69 3.2 W 15 24 8 13 1020.4 - 0.0
31/01:30am 18.0 17.1 12.6 70 3.0 WNW 9 15 5 8 1020.5 - 0.0
31/01:00am 18.2 17.2 12.2 68 3.3 WNW 9 19 5 10 1020.6 - 0.0
31/12:30am 18.4 17.0 12.2 67 3.4 WNW 11 19 6 10 1021.1 - 0.0
31/12:00am 18.2 16.4 12.2 68 3.3 WNW 13 20 7 11 1021.0 - 0.0
 
Date/Time
EST
Temp
°C
App
Temp
°C
Dew
Point
Rel
Hum
%
Delta-T
°C
Wind Press
QNH
hPa
Press
MSL
hPa
Rain
since 9 am
mm
Dir
 
Spd
km/h
Gust
km/h
Spd
kts
Gust
kts
30/11:30pm 18.3 16.8 11.9 66 3.5 WNW 11 20 6 11 1021.0 1021.0 0.0
30/11:00pm 18.0 17.3 12.0 68 3.3 WNW 7 13 4 7 1020.9 - 0.0
30/10:30pm 18.0 17.1 12.6 70 3.0 WNW 9 15 5 8 1021.0 - 0.0
30/10:00pm 17.9 17.4 12.5 70 3.0 WNW 7 11 4 6 1020.9 - 0.0
30/09:30pm 17.9 16.9 12.3 70 3.1 WNW 9 17 5 9 1021.0 - 0.0
30/09:00pm 17.9 16.8 12.1 69 3.2 WNW 9 13 5 7 1021.0 - 0.0
30/08:30pm 18.1 16.6 11.9 67 3.4 WNW 11 15 6 8 1021.0 1021.0 0.0
30/08:00pm 18.2 16.8 12.2 68 3.3 WNW 11 17 6 9 1021.0 - 0.0
30/07:30pm 18.1 16.5 12.7 70 3.0 WNW 13 19 7 10 1021.2 - 0.0
30/07:00pm 17.9 17.0 12.5 70 3.0 WNW 9 17 5 9 1021.0 - 0.0
30/06:30pm 17.8 16.9 12.6 71 2.9 WNW 9 17 5 9 1020.7 - 0.0
30/06:00pm 17.5 16.5 12.2 71 2.9 WNW 9 13 5 7 1020.5 - 0.0
30/05:30pm 17.0 16.5 12.1 73 2.7 WNW 6 9 3 5 1020.0 1020.0 0.0
30/05:00pm 17.7 16.8 12.5 71 2.9 W 9 17 5 9 1019.8 - 0.0
30/04:30pm 18.3 15.7 12.1 67 3.4 W 17 22 9 12 1019.8 - 0.0
30/04:00pm 18.9 16.8 12.4 66 3.6 W 15 20 8 11 1019.6 - 0.0
30/03:30pm 19.3 16.9 12.5 64 3.8 W 17 22 9 12 1019.5 - 0.0
30/03:00pm 19.6 16.9 12.8 65 3.8 W 19 24 10 13 1019.4 - 0.0
30/02:30pm 19.5 16.7 12.5 64 3.9 W 19 26 10 14 1019.5 1019.5 0.0
30/02:00pm 19.7 16.9 13.2 66 3.7 W 20 24 11 13 1019.5 - 0.0
30/01:30pm 19.6 16.5 13.4 67 3.5 W 22 28 12 15 1019.9 - 0.0
30/01:00pm 19.7 16.5 13.0 65 3.8 W 22 28 12 15 1019.8 - 0.0
30/12:30pm 19.5 15.5 11.9 61 4.2 W 24 28 13 15 1020.0 - 0.0
30/12:00pm 19.8 15.7 11.4 58 4.6 W 24 30 13 16 1020.4 - 0.0
30/11:30am 19.9 16.3 12.0 60 4.4 W 22 28 12 15 1020.6 1020.6 0.0
30/11:00am 19.6 16.2 11.4 59 4.5 W 20 24 11 13 1021.0 - 0.0
30/10:30am 19.5 16.2 11.7 60 4.3 W 20 26 11 14 1021.4 - 0.0
30/10:00am 19.2 15.4 11.1 59 4.4 W 22 26 12 14 1021.8 - 0.0
30/09:30am 19.3 15.8 12.1 63 4.0 W 22 28 12 15 1022.0 - 0.0
30/09:00am 19.3 15.8 12.1 63 4.0 W 22 26 12 14 1021.8 - 0.0
30/08:30am 18.9 15.3 12.0 64 3.8 W 22 26 12 14 1021.7 1021.7 0.0
30/08:00am 18.8 15.3 12.3 66 3.6 W 22 28 12 15 1021.6 - 0.0
30/07:30am 18.5 14.6 12.2 66 3.5 W 24 28 13 15 1021.4 - 0.0
30/07:00am 18.3 15.5 11.3 63 3.8 W 17 24 9 13 1021.2 - 0.0
30/06:30am 17.9 13.9 11.7 67 3.4 W 24 28 13 15 1021.1 - 0.0
30/06:00am 18.0 13.1 11.4 65 3.6 W 28 32 15 17 1020.9 - 0.0
30/05:30am 18.1 13.7 11.7 66 3.5 W 26 32 14 17 1020.6 1020.6 0.0
30/05:00am 18.2 14.1 11.6 65 3.6 W 24 30 13 16 1020.2 - 0.0
30/04:30am 18.3 13.5 11.5 64 3.7 W 28 32 15 17 1019.9 - 0.0
30/04:00am 18.4 14.6 12.3 67 3.4 W 24 32 13 17 1019.5 - 0.0
30/03:30am 18.3 14.9 12.5 69 3.2 W 22 30 12 16 1019.4 - 0.0
30/03:00am 18.2 15.2 13.6 74 2.6 W 22 28 12 15 1019.5 - 0.0
30/02:30am 18.3 15.7 13.7 74 2.6 W 20 26 11 14 1019.5 1019.5 0.0
30/02:00am 18.5 15.2 14.1 75 2.5 W 24 28 13 15 1019.6 - 0.0
30/01:30am 18.6 15.8 14.4 76 2.4 W 22 30 12 16 1019.7 - 0.0
30/01:00am 18.6 17.0 12.9 69 3.2 NW 13 20 7 11 1020.1 - 0.0
30/12:30am 18.5 17.0 13.2 71 3.0 NW 13 24 7 13 1020.3 - 0.0
30/12:00am 18.6 17.6 13.3 71 3.0 NW 11 20 6 11 1020.7 - 0.0
 
Date/Time
EST
Temp
°C
App
Temp
°C
Dew
Point
Rel
Hum
%
Delta-T
°C
Wind Press
QNH
hPa
Press
MSL
hPa
Rain
since 9 am
mm
Dir
 
Spd
km/h
Gust
km/h
Spd
kts
Gust
kts
29/11:30pm 18.4 17.8 13.6 73 2.7 NW 9 19 5 10 1020.6 1020.6 0.0

Other Formats:

Comma delimited format used in spreadsheet applications
http://www.bom.gov.au/fwo/IDN60801/IDN60801.94995.axf

JavaScript Object Notation format (JSON) in row-major order
http://www.bom.gov.au/fwo/IDN60801/IDN60801.94995.json